Time;durP1;ratioP1;P1;durP2;ratioP2;P2;SDS_P1;SDS_P2;PMS_P1;PMS_P2;Temp;Humidity;BMP_temperature;BMP_pressure;BME280_temperature;BME280_humidity;BME280_pressure;Samples;Min_cycle;Max_cycle;Signal;HPM_P1;HPM_P2
2022/01/19 00:01:49;;;;;;;10.07;6.57;;;;;;;2.22;84.12;99655.34;5058597;28;20200;-70
2022/01/19 00:04:15;;;;;;;10.23;6.17;;;;;;;2.23;84.68;99656.19;5058554;28;20207;-70
2022/01/19 00:06:41;;;;;;;8.77;6.70;;;;;;;2.05;85.20;99652.47;5058218;28;20604;-70
2022/01/19 00:09:08;;;;;;;8.93;6.67;;;;;;;1.84;85.81;99654.22;5058251;28;20533;-70
2022/01/19 00:11:34;;;;;;;9.97;6.53;;;;;;;1.75;86.04;99639.28;5058460;28;20232;-70
2022/01/19 00:14:01;;;;;;;11.53;7.37;;;;;;;1.68;87.13;99630.25;5058439;28;20201;-70
2022/01/19 00:16:27;;;;;;;9.60;6.70;;;;;;;1.65;87.24;99614.75;5058427;28;20196;-70
2022/01/19 00:18:54;;;;;;;11.57;7.37;;;;;;;1.66;87.84;99612.00;5058036;28;20221;-70
2022/01/19 00:21:20;;;;;;;12.00;7.30;;;;;;;1.57;88.06;99612.75;5058131;28;20189;-70
2022/01/19 00:23:46;;;;;;;10.37;7.00;;;;;;;1.58;87.98;99614.41;5058130;28;20194;-70
2022/01/19 00:26:13;;;;;;;8.83;7.33;;;;;;;1.43;88.01;99615.66;5058128;28;20192;-70
2022/01/19 00:28:39;;;;;;;9.77;7.30;;;;;;;1.41;88.50;99622.84;5058010;28;20205;-71
2022/01/19 00:31:06;;;;;;;8.80;7.03;;;;;;;1.31;88.67;99623.69;5058122;28;20206;-70
2022/01/19 00:33:32;;;;;;;9.47;7.47;;;;;;;1.33;88.97;99640.09;5057792;28;20511;-70
2022/01/19 00:35:59;;;;;;;10.83;7.10;;;;;;;1.35;88.81;99646.06;5057086;28;20587;-70
2022/01/19 00:38:25;;;;;;;7.67;6.87;;;;;;;1.26;89.40;99660.72;5057967;28;20272;-70
2022/01/19 00:40:51;;;;;;;10.00;7.40;;;;;;;1.22;89.37;99654.06;5057803;28;20221;-70
2022/01/19 00:43:18;;;;;;;10.30;8.13;;;;;;;1.12;89.54;99645.25;5057780;28;20212;-70
2022/01/19 00:45:45;;;;;;;9.20;7.50;;;;;;;1.15;90.29;99655.50;5057845;28;20202;-70
2022/01/19 00:48:12;;;;;;;8.50;6.80;;;;;;;1.07;89.75;99654.47;5057448;28;20529;-70
2022/01/19 00:50:38;;;;;;;8.90;7.23;;;;;;;1.10;89.78;99643.72;5057694;28;20224;-70
2022/01/19 00:53:04;;;;;;;11.87;8.23;;;;;;;1.02;90.18;99648.72;5057408;28;20592;-70
2022/01/19 00:55:31;;;;;;;11.30;7.80;;;;;;;1.08;90.28;99643.84;5057632;28;20197;-70
2022/01/19 00:57:57;;;;;;;8.73;7.47;;;;;;;1.03;90.10;99640.75;5057285;28;20197;-70
2022/01/19 01:00:28;;;;;;;9.67;7.37;;;;;;;0.94;90.44;99645.91;5057111;28;20237;-70
2022/01/19 01:02:55;;;;;;;12.10;8.00;;;;;;;0.93;90.66;99649.44;5057540;28;20216;-69
2022/01/19 01:05:23;;;;;;;13.20;8.20;;;;;;;0.91;90.67;99644.34;5057473;28;20201;-69
2022/01/19 01:07:49;;;;;;;8.00;7.17;;;;;;;0.89;90.42;99645.44;5057447;28;20327;-69
2022/01/19 01:10:17;;;;;;;9.43;7.30;;;;;;;0.83;90.90;99645.88;5056980;28;20229;-69
2022/01/19 01:12:47;;;;;;;13.77;8.30;;;;;;;0.89;91.25;99645.44;5056983;28;20292;-69
2022/01/19 01:15:27;;;;;;;10.70;8.30;;;;;;;0.87;90.94;99649.94;5057287;28;20205;-69
2022/01/19 01:20:39;;;;;;;10.63;8.10;;;;;;;0.71;91.19;99636.38;5056846;28;20630;-69
2022/01/19 01:23:08;;;;;;;10.47;8.23;;;;;;;0.72;91.87;99624.97;5057158;28;20208;-69
2022/01/19 01:25:34;;;;;;;10.23;7.37;;;;;;;0.77;91.86;99614.97;5056842;28;20209;-69
2022/01/19 01:28:01;;;;;;;11.17;7.67;;;;;;;0.74;91.54;99607.34;5057032;28;20208;-69
2022/01/19 01:30:28;;;;;;;13.90;8.30;;;;;;;0.71;91.93;99602.38;5056594;28;20224;-69
2022/01/19 01:32:54;;;;;;;15.33;8.73;;;;;;;0.64;92.26;99598.53;5056972;28;20194;-69
2022/01/19 01:35:20;;;;;;;8.30;7.33;;;;;;;0.70;92.08;99595.44;5056882;28;20205;-69
2022/01/19 01:37:47;;;;;;;10.57;7.93;;;;;;;0.65;91.94;99597.59;5056493;28;20189;-69
2022/01/19 01:40:14;;;;;;;10.80;8.37;;;;;;;0.66;92.40;99607.09;5056581;28;20221;-69
2022/01/19 01:42:41;;;;;;;9.00;7.63;;;;;;;0.52;92.01;99618.66;5056371;28;20612;-69
2022/01/19 01:45:12;;;;;;;12.27;7.27;;;;;;;0.49;92.44;99625.91;5056729;28;20208;-69
2022/01/19 01:47:43;;;;;;;10.47;7.73;;;;;;;0.50;92.64;99627.56;5055925;28;20199;-70
2022/01/19 01:55:37;;;;;;;14.93;8.33;;;;;;;0.44;92.86;99607.94;5056752;28;20222;-70
2022/01/19 01:58:04;;;;;;;11.93;7.30;;;;;;;0.36;92.80;99601.63;5056576;28;20499;-70
2022/01/19 02:00:30;;;;;;;13.40;8.73;;;;;;;0.37;93.37;99592.81;5056082;28;20225;-70
2022/01/19 02:02:56;;;;;;;10.97;9.17;;;;;;;0.47;93.48;99582.34;5056136;28;20510;-69
2022/01/19 02:05:23;;;;;;;11.40;8.70;;;;;;;0.48;93.53;99580.59;5056528;28;20223;-69
2022/01/19 02:08:01;;;;;;;12.27;8.83;;;;;;;0.47;93.14;99578.94;5056398;28;20209;-69
2022/01/19 02:10:37;;;;;;;13.80;8.37;;;;;;;0.51;93.51;99569.91;5056065;28;20233;-69
2022/01/19 02:16:16;;;;;;;9.77;8.10;;;;;;;0.46;93.69;99572.03;5056530;28;20223;-69
2022/01/19 02:21:45;;;;;;;12.13;8.40;;;;;;;0.42;93.97;99556.69;5056083;28;20200;-70
2022/01/19 02:24:16;;;;;;;14.17;8.60;;;;;;;0.49;94.48;99548.22;5056051;28;20196;-70
2022/01/19 02:26:55;;;;;;;12.57;9.10;;;;;;;0.52;93.84;99548.00;5056284;28;20193;-70
2022/01/19 02:40:31;;;;;;;10.13;8.23;;;;;;;0.57;93.60;99522.31;5055938;28;20220;-70
2022/01/19 02:43:07;;;;;;;12.00;8.73;;;;;;;0.62;94.38;99521.97;5056248;28;20419;-70
2022/01/19 02:51:06;;;;;;;12.67;9.53;;;;;;;0.56;94.07;99506.72;5055928;28;20567;-69
2022/01/19 02:53:37;;;;;;;10.53;9.00;;;;;;;0.55;93.95;99502.44;5056144;28;20190;-69
2022/01/19 02:56:08;;;;;;;11.73;8.17;;;;;;;0.48;93.63;99486.41;5056026;28;20206;-70
2022/01/19 02:58:40;;;;;;;13.47;9.07;;;;;;;0.45;94.28;99480.59;5055700;28;20617;-70
2022/01/19 03:09:14;;;;;;;12.70;9.40;;;;;;;0.30;94.68;99456.47;5058955;28;20636;-70
2022/01/19 03:11:40;;;;;;;11.53;8.93;;;;;;;0.26;94.86;99438.53;5059600;28;20201;-70
2022/01/19 03:14:08;;;;;;;11.73;9.40;;;;;;;0.31;94.65;99436.38;5059285;28;20200;-70
2022/01/19 03:16:35;;;;;;;14.57;10.50;;;;;;;0.24;94.89;99421.16;5059557;28;20201;-70
2022/01/19 03:19:01;;;;;;;17.17;10.07;;;;;;;0.20;95.32;99413.69;5059338;28;20482;-70
2022/01/19 03:21:28;;;;;;;12.83;10.23;;;;;;;0.19;95.23;99412.03;5059415;28;20470;-70
2022/01/19 03:23:54;;;;;;;13.40;10.50;;;;;;;0.24;94.94;99413.31;5059378;28;20209;-70
2022/01/19 03:26:21;;;;;;;14.40;9.90;;;;;;;0.17;94.93;99414.75;5059339;28;20433;-71
2022/01/19 03:28:47;;;;;;;11.80;9.43;;;;;;;0.06;95.00;99408.72;5059179;28;20458;-70
2022/01/19 03:31:13;;;;;;;15.33;9.90;;;;;;;-0.04;95.47;99416.44;5059224;28;20434;-70
2022/01/19 03:33:40;;;;;;;14.17;9.83;;;;;;;-0.07;95.32;99406.22;5059218;28;20484;-70
2022/01/19 03:36:06;;;;;;;14.73;10.30;;;;;;;-0.06;95.74;99407.88;5059215;28;20446;-70
2022/01/19 03:38:32;;;;;;;17.13;10.07;;;;;;;-0.08;95.55;99414.19;5059064;28;20497;-70
2022/01/19 03:40:59;;;;;;;13.57;10.10;;;;;;;-0.19;96.06;99406.34;5059002;28;20473;-70
2022/01/19 03:43:25;;;;;;;13.17;10.50;;;;;;;-0.14;96.33;99398.97;5058643;28;20616;-70
2022/01/19 03:45:54;;;;;;;14.67;10.20;;;;;;;-0.11;96.47;99396.13;5058661;28;20719;-70
2022/01/19 03:48:35;;;;;;;13.40;10.47;;;;;;;-0.17;96.37;99401.84;5058923;28;20201;-70
2022/01/19 03:51:03;;;;;;;15.70;10.40;;;;;;;-0.27;96.51;99399.09;5058924;28;20239;-69
2022/01/19 03:53:30;;;;;;;19.13;11.07;;;;;;;-0.26;97.14;99398.13;5058857;28;20449;-69
2022/01/19 03:55:56;;;;;;;15.37;10.27;;;;;;;-0.18;95.99;99395.75;5058833;28;20202;-69
2022/01/19 03:58:23;;;;;;;19.60;11.27;;;;;;;-0.20;96.91;99383.78;5058418;28;20212;-69
2022/01/19 04:00:54;;;;;;;17.03;11.13;;;;;;;-0.19;96.12;99385.44;5058548;28;20477;-69
2022/01/19 04:03:25;;;;;;;17.50;11.67;;;;;;;-0.21;96.53;99385.53;5058525;28;20430;-69
2022/01/19 04:05:58;;;;;;;15.17;12.00;;;;;;;-0.19;96.74;99385.44;5058861;28;20201;-69
2022/01/19 04:08:25;;;;;;;17.80;11.30;;;;;;;-0.29;96.69;99374.03;5058400;28;20196;-69
2022/01/19 04:10:52;;;;;;;15.53;12.10;;;;;;;-0.31;96.60;99376.75;5057544;28;20189;-69
2022/01/19 04:13:32;;;;;;;18.77;12.67;;;;;;;-0.28;97.53;99376.53;5058081;28;20604;-69
2022/01/19 04:15:59;;;;;;;20.90;13.77;;;;;;;-0.14;97.62;99378.06;5058399;28;20484;-69
2022/01/19 04:18:25;;;;;;;20.97;13.70;;;;;;;-0.07;97.45;99374.03;5058234;28;20204;-69
2022/01/19 04:20:52;;;;;;;17.83;12.13;;;;;;;-0.19;96.65;99373.19;5057877;28;20217;-69
2022/01/19 04:23:21;;;;;;;18.50;12.33;;;;;;;-0.28;97.06;99367.84;5057839;28;20599;-69
2022/01/19 04:25:48;;;;;;;17.53;12.87;;;;;;;-0.23;96.79;99373.53;5057980;28;20217;-69
2022/01/19 04:28:15;;;;;;;16.17;12.53;;;;;;;-0.28;97.28;99368.69;5057828;28;20438;-69
2022/01/19 04:30:42;;;;;;;17.30;12.30;;;;;;;-0.32;96.97;99364.66;5057940;28;20454;-70
2022/01/19 04:33:11;;;;;;;17.53;12.47;;;;;;;-0.41;97.02;99367.97;5057427;28;20434;-70
2022/01/19 04:35:50;;;;;;;16.70;12.70;;;;;;;-0.44;97.68;99360.38;5057162;28;20506;-70
2022/01/19 04:44:32;;;;;;;18.00;12.23;;;;;;;-0.42;97.55;99340.19;5052400;28;20459;-70
2022/01/19 05:03:54;;;;;;;17.47;13.13;;;;;;;-0.63;98.05;99315.72;5093366;28;20481;-69
2022/01/19 05:06:22;;;;;;;21.33;13.40;;;;;;;-0.61;98.18;99305.19;5093304;28;20425;-69
2022/01/19 05:14:15;;;;;;;20.07;13.93;;;;;;;-0.53;98.38;99308.84;5073086;28;20543;-70
2022/01/19 05:16:42;;;;;;;21.27;13.77;;;;;;;-0.47;98.38;99302.31;5072791;28;20437;-70
2022/01/19 05:19:08;;;;;;;21.53;13.63;;;;;;;-0.54;98.44;99296.75;5072796;28;20429;-70
2022/01/19 05:21:35;;;;;;;19.37;13.93;;;;;;;-0.55;98.37;99292.47;5072905;28;20785;-70
2022/01/19 05:24:04;;;;;;;19.73;13.63;;;;;;;-0.51;99.00;99291.28;5072494;28;20425;-70
2022/01/19 05:26:35;;;;;;;20.80;13.87;;;;;;;-0.52;98.60;99283.56;5072217;28;20437;-70
2022/01/19 05:29:02;;;;;;;21.20;13.30;;;;;;;-0.50;98.53;99297.31;5072062;28;20461;-70
2022/01/19 05:31:28;;;;;;;21.23;13.13;;;;;;;-0.50;98.76;99299.94;5072537;28;20461;-70
2022/01/19 05:33:55;;;;;;;16.77;13.00;;;;;;;-0.43;98.79;99278.47;5072652;28;20429;-70
2022/01/19 05:36:21;;;;;;;17.53;12.43;;;;;;;-0.48;98.57;99288.44;5072351;28;20425;-70
2022/01/19 05:38:48;;;;;;;19.97;12.80;;;;;;;-0.48;98.10;99275.38;5072521;28;20436;-70
2022/01/19 05:41:14;;;;;;;18.80;12.30;;;;;;;-0.47;98.36;99278.81;5072086;28;20454;-70
2022/01/19 05:43:40;;;;;;;21.47;12.83;;;;;;;-0.57;98.17;99268.28;5071773;28;20440;-70
2022/01/19 05:46:08;;;;;;;16.97;12.40;;;;;;;-0.56;98.56;99259.47;5071363;28;20669;-70
2022/01/19 05:48:34;;;;;;;18.00;13.50;;;;;;;-0.48;98.57;99259.72;5071859;28;20461;-70
2022/01/19 05:51:00;;;;;;;18.80;13.87;;;;;;;-0.52;98.75;99258.28;5071343;28;20449;-69
2022/01/19 05:53:27;;;;;;;19.33;13.23;;;;;;;-0.50;98.59;99253.75;5071301;28;20446;-70
2022/01/19 05:55:53;;;;;;;19.83;13.33;;;;;;;-0.49;98.56;99258.03;5071338;28;20513;-70
2022/01/19 05:58:19;;;;;;;19.63;13.50;;;;;;;-0.49;98.82;99255.41;5071297;28;20195;-70
2022/01/19 06:00:46;;;;;;;19.33;13.83;;;;;;;-0.47;99.01;99256.13;5062037;28;20458;-70
2022/01/19 06:03:12;;;;;;;19.87;14.67;;;;;;;-0.55;99.29;99258.53;5057762;28;20865;-70
2022/01/19 06:05:38;;;;;;;19.53;14.67;;;;;;;-0.53;99.26;99261.00;5057933;28;20840;-70
2022/01/19 06:08:39;;;;;;;20.07;13.90;;;;;;;-0.53;98.57;99255.78;5057857;28;20418;-70
2022/01/19 06:11:04;;;;;;;24.23;14.57;;;;;;;-0.63;98.39;99253.06;5057536;28;20486;-70
2022/01/19 06:13:30;;;;;;;23.40;14.53;;;;;;;-0.61;98.60;99242.50;5057334;28;20880;-70
2022/01/19 06:15:57;;;;;;;19.90;14.10;;;;;;;-0.71;99.16;99250.22;5057424;28;20422;-70
2022/01/19 06:18:23;;;;;;;18.30;13.97;;;;;;;-0.66;99.27;99250.72;5057599;28;20868;-70
2022/01/19 06:20:50;;;;;;;21.83;13.73;;;;;;;-0.71;99.00;99241.56;5057603;28;20271;-70
2022/01/19 06:23:17;;;;;;;21.67;13.50;;;;;;;-0.73;98.54;99249.50;5057535;28;20449;-70
2022/01/19 06:25:43;;;;;;;18.37;13.77;;;;;;;-0.77;98.53;99245.47;5057972;28;20532;-69
2022/01/19 06:28:09;;;;;;;24.13;14.13;;;;;;;-0.72;99.16;99245.13;5057434;28;20418;-69
2022/01/19 06:30:36;;;;;;;21.10;12.33;;;;;;;-0.81;98.79;99249.28;5057329;28;20806;-69
2022/01/19 06:33:03;;;;;;;20.60;14.27;;;;;;;-0.75;99.11;99255.81;5057297;28;20848;-69
2022/01/19 06:35:30;;;;;;;18.70;13.37;;;;;;;-0.72;99.08;99259.00;5057280;28;20484;-69
2022/01/19 06:37:56;;;;;;;23.00;13.67;;;;;;;-0.72;99.11;99266.03;5057436;28;20434;-69
2022/01/19 06:40:25;;;;;;;20.30;13.77;;;;;;;-0.71;98.75;99263.25;5057490;28;20741;-69
2022/01/19 06:42:53;;;;;;;20.87;13.47;;;;;;;-0.63;98.81;99260.09;5057956;28;20461;-69
2022/01/19 06:45:20;;;;;;;17.87;12.53;;;;;;;-0.53;98.90;99258.41;5057334;28;20427;-69
2022/01/19 06:47:46;;;;;;;20.77;13.40;;;;;;;-0.49;99.23;99258.03;5056994;28;20847;-69
2022/01/19 06:50:15;;;;;;;20.20;12.90;;;;;;;-0.40;99.34;99248.66;5056849;28;20474;-70
2022/01/19 06:52:41;;;;;;;17.23;12.27;;;;;;;-0.35;98.93;99247.31;5057001;28;20864;-69
2022/01/19 06:55:08;;;;;;;21.40;12.97;;;;;;;-0.36;98.36;99243.03;5057990;28;20427;-69
2022/01/19 06:57:35;;;;;;;20.63;11.97;;;;;;;-0.41;97.92;99239.97;5057243;28;20437;-69
2022/01/19 07:00:01;;;;;;;18.30;11.60;;;;;;;-0.43;97.67;99241.88;5057246;28;20451;-70
2022/01/19 07:02:28;;;;;;;13.90;11.07;;;;;;;-0.45;98.09;99243.78;5056840;28;20419;-70
2022/01/19 07:04:54;;;;;;;13.43;10.40;;;;;;;-0.48;97.66;99241.44;5057358;28;20534;-70
2022/01/19 07:07:21;;;;;;;13.10;11.13;;;;;;;-0.50;98.27;99240.69;5056752;28;20437;-70
2022/01/19 07:09:47;;;;;;;15.80;11.13;;;;;;;-0.48;98.33;99246.66;5056908;28;20228;-69
2022/01/19 07:12:14;;;;;;;13.93;10.60;;;;;;;-0.47;97.79;99250.06;5055800;28;20859;-69
2022/01/19 07:14:41;;;;;;;16.70;11.10;;;;;;;-0.47;98.00;99237.84;5056696;28;20441;-69
2022/01/19 07:17:08;;;;;;;14.17;11.17;;;;;;;-0.46;98.03;99236.06;5056815;28;20465;-70
2022/01/19 07:19:34;;;;;;;13.00;10.70;;;;;;;-0.41;97.78;99236.50;5056523;28;20446;-70
2022/01/19 07:22:00;;;;;;;17.63;11.87;;;;;;;-0.42;97.80;99242.69;5056580;28;20422;-70
2022/01/19 07:24:27;;;;;;;13.30;9.93;;;;;;;-0.47;97.67;99232.63;5056440;28;20430;-70
2022/01/19 07:26:53;;;;;;;19.57;12.40;;;;;;;-0.49;98.28;99231.09;5056040;28;20426;-70
2022/01/19 07:29:20;;;;;;;16.87;10.47;;;;;;;-0.44;97.99;99228.94;5055202;28;20977;-68
2022/01/19 07:31:46;;;;;;;16.57;11.10;;;;;;;-0.45;97.68;99225.50;5053835;28;20430;-68
2022/01/19 07:34:12;;;;;;;17.13;11.57;;;;;;;-0.46;97.73;99223.84;5053718;28;20423;-68
2022/01/19 07:36:39;;;;;;;20.00;11.40;;;;;;;-0.54;98.06;99221.00;5054563;28;20192;-68
2022/01/19 07:39:07;;;;;;;15.70;11.97;;;;;;;-0.53;98.30;99221.84;5054002;28;20437;-68
2022/01/19 07:41:34;;;;;;;18.37;12.17;;;;;;;-0.44;98.09;99219.31;5054274;28;20529;-68
2022/01/19 07:44:00;;;;;;;17.90;11.47;;;;;;;-0.42;97.61;99212.19;5054909;28;20525;-68
2022/01/19 07:46:27;;;;;;;19.97;12.07;;;;;;;-0.36;97.57;99203.84;5056321;28;20430;-68
2022/01/19 07:48:53;;;;;;;19.33;12.50;;;;;;;-0.29;97.45;99206.81;5056086;28;20466;-68
2022/01/19 07:51:19;;;;;;;21.47;12.70;;;;;;;-0.28;97.76;99211.91;5056307;28;20454;-68
2022/01/19 07:53:46;;;;;;;20.30;13.03;;;;;;;-0.22;97.48;99206.19;5055942;28;20418;-69
2022/01/19 07:56:12;;;;;;;17.23;12.27;;;;;;;-0.19;97.21;99208.56;5055883;28;20676;-68
2022/01/19 07:58:38;;;;;;;15.83;12.80;;;;;;;-0.15;97.41;99196.91;5055674;28;20221;-68
2022/01/19 08:01:05;;;;;;;19.47;13.23;;;;;;;-0.10;97.88;99199.97;5055620;28;20755;-68
2022/01/19 08:03:31;;;;;;;18.17;12.57;;;;;;;-0.12;96.89;99194.03;5047633;28;20738;-67
2022/01/19 08:05:57;;;;;;;22.70;13.00;;;;;;;-0.13;97.69;99194.19;5035623;28;20730;-68
2022/01/19 08:08:24;;;;;;;20.30;12.90;;;;;;;-0.17;97.17;99196.19;5035744;28;20431;-68
2022/01/19 08:10:50;;;;;;;19.97;13.80;;;;;;;-0.05;97.18;99195.19;5035173;28;20798;-68
2022/01/19 08:13:18;;;;;;;20.80;13.63;;;;;;;-0.09;97.47;99190.38;5035407;28;20439;-68
2022/01/19 08:15:44;;;;;;;16.70;12.30;;;;;;;-0.01;97.20;99183.53;5035563;28;20466;-67
2022/01/19 08:18:11;;;;;;;24.20;13.83;;;;;;;0.06;96.89;99191.72;5035693;28;20194;-68
2022/01/19 08:20:40;;;;;;;17.87;12.47;;;;;;;0.13;96.50;99186.81;5035661;28;20230;-68
2022/01/19 08:23:06;;;;;;;22.33;13.07;;;;;;;0.23;96.19;99191.16;5035542;28;20447;-68
2022/01/19 08:25:33;;;;;;;19.57;13.50;;;;;;;0.25;96.57;99184.00;5036023;28;20190;-68
2022/01/19 08:27:59;;;;;;;16.20;12.80;;;;;;;0.29;96.65;99182.81;5049188;28;20447;-68
2022/01/19 08:30:26;;;;;;;17.93;12.90;;;;;;;0.38;95.34;99174.19;5054916;28;20478;-68
2022/01/19 08:32:52;;;;;;;17.83;13.10;;;;;;;0.49;94.60;99176.72;5055496;28;20437;-68
2022/01/19 08:35:19;;;;;;;16.10;12.53;;;;;;;0.57;94.03;99170.84;5055684;28;20204;-68
2022/01/19 08:37:45;;;;;;;17.27;12.90;;;;;;;0.60;94.21;99175.81;5055764;28;20202;-69
2022/01/19 08:40:12;;;;;;;18.57;12.37;;;;;;;0.69;94.07;99177.66;5055893;28;20217;-70
2022/01/19 08:42:39;;;;;;;16.27;12.50;;;;;;;0.71;93.50;99179.19;5056112;28;20258;-68
2022/01/19 08:45:08;;;;;;;15.77;12.73;;;;;;;0.83;93.34;99177.31;5055742;28;20202;-68
2022/01/19 08:47:36;;;;;;;20.03;13.17;;;;;;;0.83;93.39;99187.78;5055459;28;20584;-68
2022/01/19 08:50:09;;;;;;;17.27;12.43;;;;;;;0.97;92.37;99184.81;5055662;28;20229;-68
2022/01/19 08:52:35;;;;;;;17.27;13.17;;;;;;;0.97;92.13;99190.06;5055496;28;20238;-68
2022/01/19 08:55:02;;;;;;;14.80;12.60;;;;;;;0.98;92.37;99184.69;5054959;28;20196;-68
2022/01/19 08:57:28;;;;;;;15.27;13.40;;;;;;;1.05;91.67;99182.38;5055377;28;20618;-68
2022/01/19 08:59:55;;;;;;;15.67;12.57;;;;;;;1.04;92.13;99185.97;5055324;28;20239;-67
2022/01/19 09:02:21;;;;;;;15.83;14.03;;;;;;;1.08;92.27;99176.88;5055029;28;20210;-68
2022/01/19 09:04:48;;;;;;;17.73;13.60;;;;;;;1.21;91.19;99182.72;5055360;28;20197;-68
2022/01/19 09:07:15;;;;;;;17.47;13.40;;;;;;;1.24;91.43;99182.44;5055236;28;20496;-68
2022/01/19 09:09:41;;;;;;;15.50;13.27;;;;;;;1.36;91.29;99178.75;5055178;28;20321;-69
2022/01/19 09:12:08;;;;;;;17.53;14.37;;;;;;;1.33;91.26;99181.63;5055434;28;20201;-68
2022/01/19 09:14:34;;;;;;;18.33;13.90;;;;;;;1.41;89.96;99180.03;5055857;28;20208;-68
2022/01/19 09:17:01;;;;;;;21.03;13.60;;;;;;;1.52;88.63;99177.28;5055472;28;20478;-68
2022/01/19 09:19:28;;;;;;;17.23;12.40;;;;;;;1.62;88.87;99174.69;5055514;28;20228;-70
2022/01/19 09:21:55;;;;;;;17.70;13.30;;;;;;;1.65;89.44;99177.00;5055710;28;20205;-68
2022/01/19 09:24:22;;;;;;;16.83;12.70;;;;;;;1.70;88.79;99175.66;5055586;28;20580;-70
2022/01/19 09:26:48;;;;;;;15.20;12.30;;;;;;;1.80;88.38;99176.47;5055737;28;20208;-69
2022/01/19 09:29:15;;;;;;;17.13;13.60;;;;;;;1.88;87.80;99181.88;5055013;28;20209;-68
2022/01/19 09:31:43;;;;;;;14.47;11.87;;;;;;;2.12;85.41;99182.28;5055282;28;20202;-68
2022/01/19 09:34:14;;;;;;;15.00;12.47;;;;;;;2.15;86.69;99170.69;5055405;28;20197;-69
2022/01/19 09:36:46;;;;;;;13.50;11.27;;;;;;;2.31;84.43;99171.75;5058374;28;20190;-68
2022/01/19 09:39:15;;;;;;;13.93;11.73;;;;;;;2.36;83.66;99173.97;5058818;28;20257;-70
2022/01/19 09:41:42;;;;;;;13.60;11.70;;;;;;;2.48;83.64;99167.63;5059187;28;20622;-69
2022/01/19 09:44:09;;;;;;;14.23;11.07;;;;;;;2.50;84.17;99174.38;5058937;28;20251;-68
2022/01/19 09:46:37;;;;;;;14.23;11.03;;;;;;;2.60;83.71;99164.69;5058800;28;20204;-68
2022/01/19 09:49:05;;;;;;;14.67;11.07;;;;;;;2.66;82.91;99163.28;5058986;28;20502;-68
2022/01/19 09:51:34;;;;;;;14.37;11.10;;;;;;;2.82;82.24;99160.88;5058666;28;20226;-68
2022/01/19 09:54:00;;;;;;;14.17;10.73;;;;;;;2.81;80.93;99154.81;5058832;28;20212;-69
2022/01/19 09:56:27;;;;;;;14.30;11.83;;;;;;;2.97;81.24;99152.38;5058639;28;20198;-70
2022/01/19 09:58:53;;;;;;;15.13;11.90;;;;;;;3.02;80.23;99157.22;5059087;28;20197;-70
2022/01/19 10:01:22;;;;;;;14.27;11.33;;;;;;;3.00;80.63;99154.72;5059055;28;20217;-69
2022/01/19 10:03:49;;;;;;;14.97;11.63;;;;;;;3.00;81.36;99154.72;5058402;28;20634;-69
2022/01/19 10:06:22;;;;;;;14.67;11.00;;;;;;;2.98;79.74;99143.53;5058683;28;20224;-69
2022/01/19 10:08:59;;;;;;;14.20;11.33;;;;;;;3.18;79.56;99121.47;5058669;28;20194;-69
2022/01/19 10:16:58;;;;;;;19.60;12.80;;;;;;;3.12;80.70;99122.03;5057762;28;20256;-69
2022/01/19 10:17:08;;;;;;;13.37;11.83;;;;;;;3.18;79.99;99115.38;5057897;28;20176;-69
2022/01/19 10:19:41;;;;;;;17.27;12.27;;;;;;;3.28;79.83;99100.38;5058225;28;20221;-69
2022/01/19 10:22:10;;;;;;;15.87;12.10;;;;;;;3.23;80.57;99090.31;5058253;28;20193;-68
2022/01/19 10:24:50;;;;;;;14.57;12.23;;;;;;;3.25;80.23;99090.97;5057951;28;20201;-69
2022/01/19 10:27:43;;;;;;;13.53;11.90;;;;;;;3.23;79.96;99081.59;5058398;28;20196;-69
2022/01/19 10:30:09;;;;;;;17.03;12.00;;;;;;;3.49;78.33;99074.63;5058757;28;20229;-69
2022/01/19 10:32:46;;;;;;;17.40;12.13;;;;;;;3.71;77.23;99074.19;5058017;28;20200;-69
2022/01/19 10:35:25;;;;;;;13.33;11.53;;;;;;;3.65;77.66;99070.34;5057971;28;20189;-68
2022/01/19 10:38:14;;;;;;;18.17;11.67;;;;;;;3.71;77.17;99066.31;5057752;28;20469;-68
2022/01/19 10:41:02;;;;;;;15.60;11.80;;;;;;;3.59;77.29;99056.97;5057991;28;20228;-70
2022/01/19 10:43:33;;;;;;;14.77;11.73;;;;;;;3.61;76.88;99052.41;5058300;28;20190;-70
2022/01/19 10:49:21;;;;;;;17.47;11.63;;;;;;;3.53;78.02;99045.25;5057998;28;20247;-70
2022/01/19 10:51:48;;;;;;;15.97;11.73;;;;;;;3.74;77.24;99043.16;5057947;28;20190;-71
2022/01/19 10:54:26;;;;;;;14.97;11.63;;;;;;;3.95;75.75;99038.41;5057507;28;20216;-70
2022/01/19 10:56:57;;;;;;;17.67;12.20;;;;;;;3.70;76.85;99041.00;5057613;28;20197;-70
2022/01/19 10:59:33;;;;;;;14.80;11.60;;;;;;;3.71;76.33;99040.00;5057405;28;20212;-70
2022/01/19 11:02:02;;;;;;;12.20;10.73;;;;;;;3.84;75.17;99030.72;5056993;28;20616;-70
2022/01/19 11:04:31;;;;;;;15.00;11.17;;;;;;;3.87;75.75;99040.97;5057219;28;20204;-70
2022/01/19 11:07:05;;;;;;;16.33;12.07;;;;;;;3.89;75.51;99040.81;5057457;28;20197;-70
2022/01/19 11:09:34;;;;;;;16.57;11.17;;;;;;;3.88;75.85;99033.91;5079197;22;20264;-71
2022/01/19 11:12:10;;;;;;;16.87;11.67;;;;;;;3.91;75.67;99025.69;5056897;28;20298;-72
2022/01/19 11:14:37;;;;;;;15.00;11.77;;;;;;;4.04;73.95;99026.09;5057887;28;20355;-72
2022/01/19 11:17:05;;;;;;;15.50;11.60;;;;;;;4.11;75.39;99027.16;5057533;28;20253;-71
2022/01/19 11:19:31;;;;;;;17.10;12.23;;;;;;;4.06;75.22;99026.78;5057422;28;20197;-71
2022/01/19 11:22:15;;;;;;;15.27;12.07;;;;;;;4.05;76.28;99025.13;5057481;28;20205;-73
2022/01/19 11:24:44;;;;;;;16.77;12.10;;;;;;;4.10;75.99;99013.16;5057501;28;20190;-73
2022/01/19 11:27:11;;;;;;;16.83;11.60;;;;;;;4.11;74.63;99006.09;5054435;28;20201;-73
2022/01/19 11:29:40;;;;;;;16.47;11.97;;;;;;;4.32;74.48;99011.81;5057097;28;20221;-73
2022/01/19 11:32:17;;;;;;;13.50;10.90;;;;;;;4.47;72.61;99008.44;5057320;28;20228;-72
2022/01/19 11:34:50;;;;;;;13.17;11.13;;;;;;;4.53;72.25;99007.78;5057184;28;20197;-73
2022/01/19 11:37:34;;;;;;;14.97;10.83;;;;;;;4.56;72.54;98996.16;5057146;28;20251;-73
2022/01/19 11:40:05;;;;;;;14.17;11.50;;;;;;;4.62;71.92;98990.22;5056927;28;20213;-73
2022/01/19 11:42:31;;;;;;;14.63;11.60;;;;;;;4.57;71.74;98995.16;5057188;28;20220;-73
2022/01/19 11:44:58;;;;;;;14.90;12.00;;;;;;;4.72;71.37;98990.91;5056879;28;20205;-73
2022/01/19 11:47:29;;;;;;;17.80;11.87;;;;;;;4.73;72.30;98996.03;5056714;28;20197;-73
2022/01/19 11:50:07;;;;;;;14.00;11.53;;;;;;;4.72;71.87;98985.66;5056808;28;20261;-73
2022/01/19 11:52:35;;;;;;;16.37;11.03;;;;;;;4.65;72.15;98989.94;5056670;28;20201;-73
2022/01/19 11:55:17;;;;;;;14.27;10.77;;;;;;;4.50;72.94;98988.84;5056971;28;20209;-72
2022/01/19 11:57:46;;;;;;;16.60;10.80;;;;;;;4.46;72.74;98995.41;5055687;28;20540;-72
2022/01/19 12:00:25;;;;;;;14.17;11.27;;;;;;;4.33;73.26;98990.59;5056124;28;20224;-72
2022/01/19 12:02:57;;;;;;;18.50;11.30;;;;;;;4.31;73.42;98983.84;5056393;28;20192;-72
2022/01/19 12:05:45;;;;;;;14.47;10.10;;;;;;;4.27;74.11;98980.69;5056155;28;20492;-71
2022/01/19 12:08:27;;;;;;;14.93;10.57;;;;;;;4.23;73.19;98978.53;5055903;28;20607;-71
2022/01/19 12:10:58;;;;;;;12.57;10.03;;;;;;;4.30;73.06;98969.03;5056013;28;20619;-71
2022/01/19 12:13:37;;;;;;;14.77;10.23;;;;;;;4.42;72.93;98971.22;5056173;28;20276;-71
2022/01/19 12:16:13;;;;;;;13.97;9.17;;;;;;;4.29;73.20;98970.03;5056475;28;20193;-71
2022/01/19 12:18:46;;;;;;;11.47;8.93;;;;;;;4.35;73.59;98969.38;5056555;28;20491;-72
2022/01/19 12:21:16;;;;;;;13.40;9.90;;;;;;;4.12;74.04;98969.09;5056374;28;20559;-72
2022/01/19 12:23:43;;;;;;;11.17;8.40;;;;;;;4.13;74.24;98965.50;5056408;28;20208;-72
2022/01/19 12:26:10;;;;;;;12.07;9.10;;;;;;;4.08;74.22;98969.56;5056512;28;20193;-72
2022/01/19 12:28:50;;;;;;;15.40;8.20;;;;;;;4.20;73.03;98963.06;5056024;28;20228;-72
2022/01/19 12:31:23;;;;;;;10.00;8.07;;;;;;;4.25;73.23;98971.31;5056139;28;20232;-71
2022/01/19 12:34:04;;;;;;;12.53;8.97;;;;;;;4.11;74.25;98964.00;5056060;28;20197;-71
2022/01/19 12:36:43;;;;;;;12.87;9.30;;;;;;;4.34;74.27;98965.09;5056232;28;20192;-72
2022/01/19 12:39:28;;;;;;;12.20;8.63;;;;;;;4.32;73.81;98957.38;5056311;28;20204;-72
2022/01/19 12:42:03;;;;;;;10.00;7.67;;;;;;;4.44;73.03;98957.91;5056146;28;20224;-71
2022/01/19 12:44:36;;;;;;;12.60;8.77;;;;;;;4.34;74.15;98939.59;5055640;28;20193;-71
2022/01/19 12:47:05;;;;;;;13.27;8.17;;;;;;;4.48;72.76;98940.81;5055475;28;20204;-72